• Join FlightAware (Why Join?)
  • Login
  • US Flag 
11:20AM EDT


 

Airport Tracker/Info


-or-


 

Live Flight TrackerFlight Track Log ✈ SQH87 ✈ 07-04-2013 ✈ KHRO - KMEM

Flight Track Log - Related Links

Times and Time Zones

All times are in EDT time to prevent confusion due to time zone crossing. See the SQH87 flight status page for this flight to view local times or setup timezone preferences in your user account.

Time Position Orientation Groundspeed Altitude Reporting Facility
EDT Latitude Longitude Course Direction KTS MPH feet Rate Location/Type
09:34AM 36.2011 -93.0267 121° Southeast 244 281 5,800  Level Memphis Center
09:35AM 36.1856 -92.9722 109° East 195 224 7,300 1,440 Climbing Memphis Center
09:36AM 36.1678 -92.9150 111° Southeast 174 200 8,700 1,320 Climbing Memphis Center
09:37AM 36.1483 -92.8528 111° Southeast 176 203 10,000 1,200 Climbing Memphis Center
09:38AM 36.1286 -92.7906 111° Southeast 181 208 11,200 1,260 Climbing Memphis Center
09:39AM 36.1401 -92.8235 112° Southeast  Level Estimated
09:39AM 36.1050 -92.7256 114° Southeast 197 227 12,600  Level Memphis Center
09:40AM 36.0853 -92.6556 109° East 203 234 13,800 1,140 Climbing Memphis Center
09:41AM 36.0636 -92.5883 112° Southeast 208 239 14,900 1,080 Climbing Memphis Center
09:42AM 36.0400 -92.5158 112° Southeast 214 246 16,000 1,080 Climbing Memphis Center
09:43AM 36.0181 -92.4458 111° Southeast 214 246 17,100 960 Climbing Memphis Center
09:44AM 35.9944 -92.3761 113° Southeast 214 246 18,000 840 Climbing Memphis Center
09:45AM 35.9706 -92.3011 111° Southeast 214 246 18,800 480 Climbing Memphis Center
09:46AM 35.9444 -92.2236 113° Southeast 219 252 19,000 60 Climbing Memphis Center
09:47AM 35.9167 -92.1383 112° Southeast 239 275 19,000  Level Memphis Center
09:48AM 35.8867 -92.0506 113° Southeast 262 302 19,000  Level Memphis Center
09:49AM 35.8586 -91.9603 111° Southeast 273 314 19,000  Level Memphis Center
09:50AM 35.8283 -91.8703 113° Southeast 278 320 19,000  Level Memphis Center
09:51AM 35.7983 -91.7750 111° Southeast 284 327 19,000  Level Memphis Center
09:52AM 35.7681 -91.6847 112° Southeast 284 327 19,000  Level Memphis Center
09:53AM 35.7375 -91.5922 112° Southeast 284 327 19,000  Level Memphis Center
09:54AM 35.7072 -91.5050 113° Southeast 284 327 19,000  Level Memphis Center
09:55AM 35.6828 -91.4306 112° Southeast 284 327 19,000 -600 Level Memphis Center
09:56AM 35.6461 -91.3228 113° Southeast 296 341 17,800 -1,260 Descending Memphis Center
09:57AM 35.6094 -91.2150 113° Southeast 302 348 16,500 -1,380 Descending Memphis Center
09:58AM 35.5767 -91.1178 112° Southeast 314 361 15,100 -1,500 Descending Memphis Center
09:59AM 35.5439 -91.0206 112° Southeast 309 356 13,600 -1,500 Descending Memphis Center
10:00AM 35.5131 -90.9283 112° Southeast 296 341 12,200 -1,440 Descending Memphis Center
10:01AM 35.4842 -90.8414 112° Southeast 283 326 10,800 -1,320 Descending Memphis Center
10:02AM 35.4553 -90.7622 114° Southeast 265 305 9,600 -1,380 Descending Memphis Center
10:03AM 35.4303 -90.6958 115° Southeast 229 264 8,100 -1,020 Descending Memphis Center
10:04AM 35.4139 -90.6297 107° East 206 237 7,600 -960 Descending Memphis Center
10:05AM 35.3931 -90.5481 107° East 227 261 6,200 -840 Descending Memphis Center
10:06AM 35.3767 -90.4792 106° East 238 274 6,000 -120 Descending Memphis Center
10:07AM 35.3578 -90.4028 107° East 233 268 6,000  Level Memphis Center
10:08AM 35.3369 -90.3264 108° East 227 261 6,000 -240 Level Memphis Center
10:09AM 35.3181 -90.2503 107° East 227 261 5,600 -600 Descending Memphis Center
10:10AM 35.2972 -90.1714 108° East 232 267 4,900 -720 Descending Memphis Center
10:11AM 35.2719 -90.0825 109° East 247 284 4,200 -660 Descending Memphis Center
10:12AM 35.2425 -90.0164 119° Southeast 239 275 3,600 -720 Descending Memphis Center
10:13AM 35.2333 -90.0000 124° Southeast 156 180 3,300 -480 Descending KMEM
10:14AM 35.1833 -89.9833 165° South 170 196 3,000 -600 Descending KMEM
10:15AM 35.1500 -89.9667 158° South 144 166 2,100 -840 Descending KMEM
10:16AM 35.1000 -89.9667 180° South 146 168 1,300 -780 Descending KMEM
10:17AM 35.0667 -89.9667 180° South 130 150 500 -840 Descending KMEM
10:19AM 35.0424 -89.9767 175° South  Level Estimated
10:26AM 35.0424 -89.9767 175° South  Level Estimated
10:27AM 35.0424 -89.9767 175° South  Level Estimated
10:28AM 35.0424 -89.9767 175° South  Level Estimated
10:29AM 35.0424 -89.9767 175° South  Level Estimated
10:30AM 35.0424 -89.9767 175° South  Level Estimated
10:31AM 35.0424 -89.9767 175° South  Level Estimated
10:32AM 35.0424 -89.9767 175° South  Level Estimated
10:33AM 35.0424 -89.9767 175° South  Level Estimated